Time;durP1;ratioP1;P1;durP2;ratioP2;P2;SDS_P1;SDS_P2;PMS_P1;PMS_P2;Temp;Humidity;BMP_temperature;BMP_pressure;BME280_temperature;BME280_humidity;BME280_pressure;Samples;Min_cycle;Max_cycle;Signal;HPM_P1;HPM_P2
2021/06/25 00:02:09;;;;;;;9.45;7.85;;;16.70;99.90;;;;;;5072311;28;20053;-74
2021/06/25 00:04:37;;;;;;;13.40;8.30;;;16.70;99.90;;;;;;5072573;28;20049;-73
2021/06/25 00:07:03;;;;;;;9.05;7.88;;;16.70;99.90;;;;;;5072020;28;20035;-71
2021/06/25 00:09:30;;;;;;;10.88;9.25;;;16.70;99.90;;;;;;5071663;28;20047;-71
2021/06/25 00:11:56;;;;;;;9.45;8.15;;;16.70;99.90;;;;;;5071915;28;20037;-72
2021/06/25 00:14:23;;;;;;;10.63;8.07;;;16.70;99.90;;;;;;5072261;28;20032;-72
2021/06/25 00:16:51;;;;;;;10.65;9.52;;;16.70;99.90;;;;;;5071572;28;20485;-72
2021/06/25 00:19:18;;;;;;;12.55;9.57;;;16.70;99.90;;;;;;5072298;28;20488;-73
2021/06/25 00:21:44;;;;;;;15.55;9.70;;;16.70;99.90;;;;;;5071815;28;20393;-71
2021/06/25 00:24:11;;;;;;;11.65;9.88;;;16.70;99.90;;;;;;5072122;28;20042;-74
2021/06/25 00:26:37;;;;;;;13.32;11.02;;;16.70;99.90;;;;;;5071498;28;20052;-72
2021/06/25 00:29:03;;;;;;;10.98;9.85;;;16.60;99.90;;;;;;5072287;28;20035;-72
2021/06/25 00:31:30;;;;;;;10.73;9.63;;;16.60;99.90;;;;;;5071689;28;20029;-73
2021/06/25 00:33:57;;;;;;;12.95;10.43;;;16.60;99.90;;;;;;5071750;28;20033;-72
2021/06/25 00:36:23;;;;;;;10.57;9.48;;;16.60;99.90;;;;;;5072436;28;20041;-72
2021/06/25 00:38:49;;;;;;;11.13;9.80;;;16.60;99.90;;;;;;5071768;28;20040;-73
2021/06/25 00:41:15;;;;;;;13.55;10.15;;;16.50;99.90;;;;;;5071431;28;20029;-73
2021/06/25 00:43:42;;;;;;;10.00;9.00;;;16.60;99.90;;;;;;5071442;28;20036;-74
2021/06/25 00:46:08;;;;;;;10.90;8.85;;;16.60;99.90;;;;;;5071707;28;20037;-74
2021/06/25 00:48:34;;;;;;;11.95;9.10;;;16.50;99.90;;;;;;5071440;28;20024;-73
2021/06/25 00:51:00;;;;;;;12.35;10.20;;;16.50;99.90;;;;;;5071599;28;20036;-74
2021/06/25 00:53:29;;;;;;;11.52;10.32;;;16.50;99.90;;;;;;5056697;28;20041;-73
2021/06/25 00:55:55;;;;;;;13.07;10.15;;;16.50;99.90;;;;;;5052821;28;20029;-73
2021/06/25 00:58:21;;;;;;;14.00;10.25;;;16.50;99.90;;;;;;5071580;28;20048;-74
2021/06/25 01:00:48;;;;;;;12.40;10.52;;;16.50;99.90;;;;;;5071201;28;20038;-73
2021/06/25 01:03:14;;;;;;;12.35;11.10;;;16.40;99.90;;;;;;5070562;28;20051;-73
2021/06/25 01:05:41;;;;;;;15.45;11.73;;;16.40;99.90;;;;;;5071142;28;20071;-73
2021/06/25 01:08:08;;;;;;;13.38;11.35;;;16.30;99.90;;;;;;5072036;28;20035;-74
2021/06/25 01:10:40;;;;;;;15.45;11.82;;;16.30;99.90;;;;;;5074691;28;20055;-73
2021/06/25 01:13:07;;;;;;;16.80;12.65;;;16.30;99.90;;;;;;5075221;28;20063;-74
2021/06/25 01:15:34;;;;;;;14.15;12.65;;;16.30;99.90;;;;;;5074869;28;20488;-73
2021/06/25 01:18:00;;;;;;;15.10;13.57;;;16.30;99.90;;;;;;5075320;28;20393;-72
2021/06/25 01:20:29;;;;;;;15.32;12.93;;;16.20;99.90;;;;;;5075033;28;20041;-73
2021/06/25 01:22:57;;;;;;;14.70;12.27;;;16.20;99.90;;;;;;5074286;28;20052;-73
2021/06/25 01:25:26;;;;;;;14.05;12.55;;;16.20;99.90;;;;;;5074597;28;20044;-73
2021/06/25 01:27:54;;;;;;;13.50;12.10;;;16.20;99.90;;;;;;5074002;28;20044;-73
2021/06/25 01:30:26;;;;;;;14.38;11.93;;;16.20;99.90;;;;;;5074577;28;20075;-73
2021/06/25 01:32:53;;;;;;;17.00;12.75;;;16.20;99.90;;;;;;5074257;28;20035;-73
2021/06/25 01:35:20;;;;;;;12.95;11.55;;;16.20;99.90;;;;;;5074816;28;20035;-73
2021/06/25 01:37:47;;;;;;;13.77;12.38;;;16.20;99.90;;;;;;5074311;28;20497;-74
2021/06/25 01:40:15;;;;;;;16.60;13.18;;;16.20;99.90;;;;;;5074092;28;20044;-73
2021/06/25 01:42:43;;;;;;;15.30;12.98;;;16.20;99.90;;;;;;5074756;28;20044;-74
2021/06/25 01:45:12;;;;;;;15.35;13.00;;;16.20;99.90;;;;;;5074936;28;20465;-73
2021/06/25 01:47:41;;;;;;;15.98;13.43;;;16.20;99.90;;;;;;5073893;28;20036;-76
2021/06/25 01:50:19;;;;;;;20.38;14.52;;;16.20;99.90;;;;;;5065678;28;20397;-73
2021/06/25 01:52:51;;;;;;;17.45;15.02;;;16.20;99.90;;;;;;5074056;28;20043;-73
2021/06/25 01:55:17;;;;;;;19.58;15.35;;;16.20;99.90;;;;;;5074647;28;20032;-73
2021/06/25 01:57:44;;;;;;;20.38;16.63;;;16.20;99.90;;;;;;5073907;28;20044;-72
2021/06/25 02:00:12;;;;;;;23.73;18.38;;;16.10;99.90;;;;;;5074220;28;20484;-73
2021/06/25 02:02:38;;;;;;;26.13;19.08;;;16.10;99.90;;;;;;5073331;28;20037;-72
2021/06/25 02:05:06;;;;;;;30.77;23.30;;;16.10;99.90;;;;;;5074330;28;20378;-73
2021/06/25 02:07:33;;;;;;;30.80;23.25;;;16.10;99.90;;;;;;5073671;28;20055;-73
2021/06/25 02:09:59;;;;;;;33.35;23.38;;;16.00;99.90;;;;;;5073965;28;20397;-73
2021/06/25 02:12:26;;;;;;;36.55;24.15;;;16.00;99.90;;;;;;5074102;28;20039;-74
2021/06/25 02:14:53;;;;;;;31.48;23.50;;;16.00;99.90;;;;;;5073621;28;20036;-74
2021/06/25 02:17:20;;;;;;;34.55;26.20;;;16.00;99.90;;;;;;5074157;28;20036;-74
2021/06/25 02:19:47;;;;;;;36.45;26.08;;;15.90;99.90;;;;;;5072487;28;20040;-74
2021/06/25 02:22:13;;;;;;;38.42;27.13;;;16.00;99.90;;;;;;5073410;28;20051;-74
2021/06/25 02:24:40;;;;;;;40.33;30.35;;;15.90;99.90;;;;;;5073329;28;20028;-74
2021/06/25 02:27:08;;;;;;;40.03;27.48;;;15.90;99.90;;;;;;5073913;28;20044;-74
2021/06/25 02:29:34;;;;;;;145.55;34.08;;;15.90;99.90;;;;;;5072730;28;20047;-74
2021/06/25 02:32:01;;;;;;;44.63;31.65;;;15.90;99.90;;;;;;5073652;28;20063;-74
2021/06/25 02:34:27;;;;;;;197.60;49.50;;;15.90;99.90;;;;;;5055672;28;20398;-74
2021/06/25 02:36:53;;;;;;;51.95;34.88;;;15.90;99.90;;;;;;5068105;28;20025;-74
2021/06/25 02:39:20;;;;;;;40.55;27.00;;;15.90;99.90;;;;;;5072866;28;20044;-74
2021/06/25 02:41:46;;;;;;;62.13;37.83;;;15.90;99.90;;;;;;5072033;28;20367;-74
2021/06/25 02:44:15;;;;;;;61.80;39.40;;;15.90;99.90;;;;;;5071444;28;20057;-74
2021/06/25 02:46:43;;;;;;;66.32;38.88;;;15.90;99.90;;;;;;5073060;28;20448;-74
2021/06/25 02:49:09;;;;;;;59.95;37.88;;;15.90;99.90;;;;;;5073048;28;20056;-73
2021/06/25 02:51:35;;;;;;;67.07;41.47;;;15.90;99.90;;;;;;5072816;28;20043;-73
2021/06/25 02:54:01;;;;;;;69.43;42.97;;;15.90;99.90;;;;;;5072969;28;20528;-73
2021/06/25 02:56:28;;;;;;;75.35;43.35;;;15.90;99.90;;;;;;5072315;28;20032;-72
2021/06/25 02:58:54;;;;;;;72.05;43.42;;;15.90;99.90;;;;;;5071101;28;20051;-73
2021/06/25 03:01:20;;;;;;;72.82;44.55;;;15.90;99.90;;;;;;5072831;28;20040;-75
2021/06/25 03:03:46;;;;;;;76.38;45.05;;;15.90;99.90;;;;;;5072364;28;20040;-74
2021/06/25 03:06:12;;;;;;;82.00;44.95;;;15.90;99.90;;;;;;5073166;28;20039;-73
2021/06/25 03:08:39;;;;;;;78.88;47.60;;;15.90;99.90;;;;;;5072160;28;20412;-73
2021/06/25 03:11:05;;;;;;;81.63;47.92;;;15.90;99.90;;;;;;5072655;28;20051;-73
2021/06/25 03:13:31;;;;;;;82.15;49.05;;;15.80;99.90;;;;;;5072880;28;20036;-73
2021/06/25 03:15:57;;;;;;;84.60;49.63;;;15.80;99.90;;;;;;5072940;28;20048;-74
2021/06/25 03:18:23;;;;;;;85.22;50.05;;;15.90;99.90;;;;;;5071000;28;20043;-73
2021/06/25 03:20:50;;;;;;;79.40;47.95;;;15.80;99.90;;;;;;5071687;28;20029;-73
2021/06/25 03:23:16;;;;;;;71.50;46.17;;;15.90;99.90;;;;;;5072517;28;20393;-73
2021/06/25 03:25:43;;;;;;;81.05;48.60;;;15.90;99.90;;;;;;5071690;28;20028;-73
2021/06/25 03:28:09;;;;;;;83.57;50.58;;;15.90;99.90;;;;;;5071934;28;20511;-73
2021/06/25 03:30:36;;;;;;;87.22;52.00;;;15.90;99.90;;;;;;5072010;28;20040;-73
2021/06/25 03:33:03;;;;;;;84.82;50.95;;;15.90;99.90;;;;;;5072250;28;20043;-73
2021/06/25 03:35:30;;;;;;;81.78;51.17;;;15.90;99.90;;;;;;5072161;28;20028;-74
2021/06/25 03:37:57;;;;;;;86.57;50.20;;;15.80;99.90;;;;;;5071657;28;20029;-73
2021/06/25 03:40:25;;;;;;;86.30;52.17;;;15.90;99.90;;;;;;5072633;28;20461;-73
2021/06/25 03:42:51;;;;;;;85.25;51.72;;;15.90;99.90;;;;;;5071994;28;20482;-73
2021/06/25 03:45:18;;;;;;;88.45;53.25;;;15.90;99.90;;;;;;5072314;28;20489;-73
2021/06/25 03:47:44;;;;;;;86.03;53.65;;;15.90;99.90;;;;;;5071441;28;20388;-73
2021/06/25 03:50:12;;;;;;;90.03;55.08;;;15.90;99.90;;;;;;5071505;28;20040;-74
2021/06/25 03:52:39;;;;;;;85.40;52.22;;;15.90;99.90;;;;;;5071899;28;20063;-73
2021/06/25 03:55:09;;;;;;;85.22;52.05;;;15.90;99.90;;;;;;5072144;28;20032;-73
2021/06/25 03:57:39;;;;;;;;;;;15.90;99.90;;;;;;5071391;28;20040;-74
2021/06/25 04:00:09;;;;;;;94.85;54.63;;;15.80;99.90;;;;;;5062379;28;19927;-75
2021/06/25 04:02:38;;;;;;;88.90;54.40;;;15.90;99.90;;;;;;5077965;28;20063;-74
2021/06/25 04:05:07;;;;;;;89.60;53.53;;;16.00;99.90;;;;;;5071267;28;20377;-73
2021/06/25 04:07:34;;;;;;;86.20;51.65;;;16.00;99.90;;;;;;5071961;28;20041;-73
2021/06/25 04:10:01;;;;;;;81.43;52.42;;;16.00;99.90;;;;;;5072513;28;20029;-74
2021/06/25 04:12:28;;;;;;;84.55;54.33;;;16.00;99.90;;;;;;5071707;28;20063;-73
2021/06/25 04:14:54;;;;;;;71.55;49.88;;;15.90;99.90;;;;;;5071508;28;20477;-75
2021/06/25 04:17:20;;;;;;;69.90;47.35;;;15.90;99.90;;;;;;5071466;28;20025;-74
2021/06/25 04:19:46;;;;;;;69.50;47.10;;;15.90;99.90;;;;;;5071104;28;20044;-74
2021/06/25 04:22:13;;;;;;;68.15;48.70;;;15.90;99.90;;;;;;5071349;28;20048;-73
2021/06/25 04:24:39;;;;;;;73.90;48.40;;;16.00;99.90;;;;;;5072012;28;20036;-74
2021/06/25 04:27:06;;;;;;;70.30;49.13;;;16.10;99.90;;;;;;5070920;28;20504;-74
2021/06/25 04:29:33;;;;;;;72.18;47.92;;;16.10;99.90;;;;;;5073487;28;20043;-74
2021/06/25 04:32:00;;;;;;;67.65;47.88;;;16.10;99.90;;;;;;5083897;28;20040;-74
2021/06/25 04:34:27;;;;;;;64.05;47.10;;;16.20;99.90;;;;;;5080266;28;20381;-73
2021/06/25 04:36:53;;;;;;;58.45;45.22;;;16.20;99.90;;;;;;5072105;28;20393;-74
2021/06/25 04:39:19;;;;;;;57.35;45.17;;;16.20;99.90;;;;;;5071657;28;20056;-73
2021/06/25 04:41:46;;;;;;;55.38;42.67;;;16.20;99.90;;;;;;5071279;28;20390;-73
2021/06/25 04:44:12;;;;;;;55.00;44.47;;;16.20;99.90;;;;;;5059376;28;20044;-75
2021/06/25 04:46:39;;;;;;;58.55;46.13;;;16.20;99.90;;;;;;5074016;28;20398;-72
2021/06/25 04:49:05;;;;;;;55.97;44.13;;;16.30;99.90;;;;;;5075316;28;20036;-74
2021/06/25 04:51:31;;;;;;;60.13;43.70;;;16.30;99.90;;;;;;5073437;28;20461;-77
2021/06/25 04:53:58;;;;;;;51.83;42.20;;;16.40;99.90;;;;;;5074165;28;20044;-77
2021/06/25 04:56:24;;;;;;;53.80;42.83;;;16.40;99.90;;;;;;5075264;28;20040;-76
2021/06/25 04:58:50;;;;;;;52.22;41.67;;;16.40;99.90;;;;;;5075799;28;20045;-76
2021/06/25 05:01:16;;;;;;;52.00;42.30;;;16.40;99.90;;;;;;5076690;28;20029;-76
2021/06/25 05:03:43;;;;;;;57.60;44.55;;;16.40;99.90;;;;;;5072508;28;20044;-77
2021/06/25 05:06:09;;;;;;;49.78;42.40;;;16.40;99.90;;;;;;5074338;28;20050;-87
2021/06/25 05:08:35;;;;;;;52.42;41.63;;;16.40;99.90;;;;;;5075732;28;20389;-86
2021/06/25 05:11:02;;;;;;;46.90;40.22;;;16.50;99.90;;;;;;5076544;28;20056;-85
2021/06/25 05:13:28;;;;;;;45.40;40.50;;;16.60;99.90;;;;;;5073393;28;20048;-86
2021/06/25 05:15:54;;;;;;;44.90;39.90;;;16.70;99.90;;;;;;5076859;28;20056;-87
2021/06/25 05:18:22;;;;;;;44.45;38.90;;;16.80;99.90;;;;;;5075754;28;20032;-86
2021/06/25 05:20:50;;;;;;;43.05;38.42;;;16.90;99.90;;;;;;5076738;28;20377;-85
2021/06/25 05:23:18;;;;;;;46.58;40.00;;;17.10;99.90;;;;;;5070086;28;20071;-75
2021/06/25 05:25:45;;;;;;;45.30;40.40;;;17.10;99.90;;;;;;5073318;28;20040;-74
2021/06/25 05:28:12;;;;;;;42.85;38.00;;;16.90;99.90;;;;;;5074035;28;20040;-74
2021/06/25 05:30:38;;;;;;;45.60;40.67;;;16.70;99.90;;;;;;5073122;28;20044;-78
2021/06/25 05:33:05;;;;;;;50.85;44.78;;;16.70;99.90;;;;;;5073199;28;20049;-74
2021/06/25 05:35:33;;;;;;;56.00;45.22;;;16.70;99.90;;;;;;5090660;28;20488;-75
2021/06/25 05:38:05;;;;;;;49.70;44.25;;;16.70;99.90;;;;;;5077796;28;20060;-75
2021/06/25 05:40:31;;;;;;;55.42;45.58;;;16.60;99.90;;;;;;5077835;28;20037;-75
2021/06/25 05:42:58;;;;;;;57.63;47.65;;;16.50;99.90;;;;;;5074940;28;20040;-75
2021/06/25 05:45:24;;;;;;;53.28;47.55;;;16.50;99.90;;;;;;5060013;28;20094;-77
2021/06/25 05:47:50;;;;;;;58.47;48.95;;;16.50;99.90;;;;;;5064476;28;20048;-75
2021/06/25 05:50:17;;;;;;;57.25;48.63;;;16.50;99.90;;;;;;5075000;28;20033;-79
2021/06/25 05:52:43;;;;;;;59.05;49.42;;;16.60;99.90;;;;;;5077703;28;20458;-79
2021/06/25 05:55:10;;;;;;;55.67;49.55;;;16.70;99.90;;;;;;5073911;28;20031;-77
2021/06/25 05:57:37;;;;;;;56.22;49.53;;;16.90;99.90;;;;;;5075375;28;20036;-82
2021/06/25 06:00:05;;;;;;;54.33;48.40;;;16.90;99.90;;;;;;5056864;28;20052;-76
2021/06/25 06:02:31;;;;;;;53.97;48.10;;;17.00;99.90;;;;;;5071502;28;20040;-74
2021/06/25 06:04:58;;;;;;;54.00;45.10;;;17.10;99.90;;;;;;5073625;28;20028;-74
2021/06/25 06:07:25;;;;;;;52.42;46.72;;;17.10;99.90;;;;;;5070108;28;20037;-74
2021/06/25 06:09:53;;;;;;;49.80;44.60;;;17.20;99.90;;;;;;5072609;28;20036;-75
2021/06/25 06:12:22;;;;;;;51.67;45.88;;;17.30;99.90;;;;;;5089280;28;20036;-73
2021/06/25 06:14:49;;;;;;;54.28;48.38;;;17.20;99.90;;;;;;5073465;28;20043;-74
2021/06/25 06:17:18;;;;;;;52.50;45.70;;;17.40;99.90;;;;;;5073451;28;20040;-74
2021/06/25 06:19:49;;;;;;;48.88;43.20;;;17.70;99.90;;;;;;5073776;28;20021;-75
2021/06/25 06:33:33;;;;;;;44.15;39.58;;;19.40;99.90;;;;;;5069407;28;20421;-75
2021/06/25 06:36:01;;;;;;;43.92;39.65;;;19.30;99.90;;;;;;5060791;28;20020;-74
2021/06/25 06:38:29;;;;;;;45.30;40.53;;;19.70;99.90;;;;;;5073108;28;20040;-74
2021/06/25 06:40:55;;;;;;;43.92;39.58;;;19.80;99.90;;;;;;5072350;28;20024;-73
2021/06/25 06:43:21;;;;;;;43.35;39.05;;;19.30;99.90;;;;;;5080237;28;20049;-77
2021/06/25 06:45:48;;;;;;;45.97;41.25;;;18.70;99.90;;;;;;5071443;28;20033;-74
2021/06/25 06:48:14;;;;;;;46.22;41.72;;;18.40;99.90;;;;;;5073565;28;20462;-81
2021/06/25 06:50:40;;;;;;;48.13;43.08;;;18.20;99.90;;;;;;5074417;28;20040;-84
2021/06/25 06:53:06;;;;;;;49.03;44.03;;;18.10;99.90;;;;;;5073164;28;20037;-83
2021/06/25 06:55:33;;;;;;;50.78;45.40;;;18.10;99.90;;;;;;5074295;28;20049;-78
2021/06/25 06:57:59;;;;;;;48.30;43.22;;;18.00;99.90;;;;;;5072822;28;20056;-77
2021/06/25 07:00:25;;;;;;;49.20;43.95;;;18.00;99.90;;;;;;5072549;28;20066;-76
2021/06/25 07:02:53;;;;;;;46.72;41.92;;;18.40;99.90;;;;;;5072834;28;20035;-76
2021/06/25 07:05:19;;;;;;;47.55;42.50;;;18.80;99.90;;;;;;5073002;28;20381;-76
2021/06/25 07:07:45;;;;;;;43.80;39.42;;;19.40;99.90;;;;;;5072091;28;20036;-78
2021/06/25 07:10:12;;;;;;;44.85;40.20;;;19.30;99.90;;;;;;5072325;28;20032;-77
2021/06/25 07:12:41;;;;;;;45.30;40.80;;;19.70;99.90;;;;;;5072395;28;20033;-77
2021/06/25 07:15:08;;;;;;;46.17;41.42;;;19.40;99.90;;;;;;5072217;28;20367;-76
2021/06/25 07:17:35;;;;;;;48.63;43.45;;;18.80;99.90;;;;;;5072961;28;20037;-75
2021/06/25 07:20:03;;;;;;;46.90;41.97;;;18.50;99.90;;;;;;5067088;28;20032;-75
2021/06/25 07:22:29;;;;;;;46.55;41.63;;;18.50;99.90;;;;;;5052163;28;20041;-77
2021/06/25 07:24:55;;;;;;;47.13;42.15;;;18.40;99.90;;;;;;5070395;28;20496;-74
2021/06/25 07:27:22;;;;;;;46.22;41.38;;;18.30;99.90;;;;;;5072610;28;20036;-77
2021/06/25 07:29:48;;;;;;;45.58;40.90;;;18.20;99.90;;;;;;5072249;28;20043;-77
2021/06/25 07:32:14;;;;;;;47.47;41.58;;;18.30;99.90;;;;;;5072720;28;20028;-78
2021/06/25 07:34:40;;;;;;;48.28;43.05;;;18.10;99.90;;;;;;5072146;28;20043;-76
2021/06/25 07:37:07;;;;;;;50.97;45.25;;;17.90;99.90;;;;;;5072708;28;20488;-78
2021/06/25 07:39:34;;;;;;;49.65;43.67;;;17.90;99.90;;;;;;5072895;28;20029;-78
2021/06/25 07:42:00;;;;;;;50.13;44.03;;;17.70;99.90;;;;;;5072047;28;20028;-77
2021/06/25 07:44:26;;;;;;;48.92;43.45;;;17.50;99.90;;;;;;5065300;28;20063;-78
2021/06/25 07:46:53;;;;;;;49.53;43.65;;;17.40;99.90;;;;;;5074627;28;20048;-79
2021/06/25 07:49:19;;;;;;;50.92;44.85;;;17.40;99.90;;;;;;5063351;28;20494;-78
2021/06/25 07:51:45;;;;;;;55.65;48.33;;;17.30;99.90;;;;;;5058654;28;20031;-78
2021/06/25 07:54:12;;;;;;;50.97;44.65;;;17.40;99.90;;;;;;5072414;28;20039;-77
2021/06/25 07:56:38;;;;;;;55.17;47.42;;;17.50;99.90;;;;;;5071681;28;20029;-77
2021/06/25 07:59:04;;;;;;;51.65;46.00;;;17.50;99.90;;;;;;5052739;28;20490;-78
2021/06/25 08:01:31;;;;;;;52.42;44.33;;;17.50;99.90;;;;;;5071620;28;20035;-78
2021/06/25 08:03:57;;;;;;;51.97;45.58;;;17.60;99.90;;;;;;5076313;28;20044;-78
2021/06/25 08:06:23;;;;;;;50.15;43.50;;;17.70;99.90;;;;;;5072040;28;20032;-78
2021/06/25 08:08:49;;;;;;;49.83;43.38;;;17.80;99.90;;;;;;5071728;28;20041;-78
2021/06/25 08:11:16;;;;;;;54.63;45.22;;;18.00;99.90;;;;;;5087012;28;20413;-78
2021/06/25 08:13:42;;;;;;;44.95;40.05;;;18.00;99.90;;;;;;5071757;28;20047;-78
2021/06/25 08:16:08;;;;;;;52.00;43.45;;;18.20;99.90;;;;;;5079192;28;20043;-80
2021/06/25 08:18:35;;;;;;;44.85;39.90;;;18.40;99.90;;;;;;5080396;28;20063;-79
2021/06/25 08:21:01;;;;;;;47.90;41.88;;;18.60;99.90;;;;;;5076344;28;20024;-78
2021/06/25 08:23:27;;;;;;;45.97;41.05;;;18.60;99.90;;;;;;5071685;28;20037;-79
2021/06/25 08:25:54;;;;;;;48.70;40.92;;;18.70;99.90;;;;;;5066747;28;20032;-79
2021/06/25 08:28:20;;;;;;;47.08;41.42;;;19.00;99.90;;;;;;5051383;28;20048;-80
2021/06/25 08:30:46;;;;;;;44.88;40.25;;;19.40;99.90;;;;;;5071104;28;20024;-78
2021/06/25 08:33:12;;;;;;;43.75;39.08;;;20.10;99.90;;;;;;5071379;28;20032;-77
2021/06/25 08:35:39;;;;;;;41.55;37.05;;;20.40;99.90;;;;;;5070045;28;20052;-76
2021/06/25 08:38:06;;;;;;;44.05;39.55;;;20.60;99.90;;;;;;5071261;28;20032;-77
2021/06/25 08:40:32;;;;;;;41.92;37.78;;;20.50;99.90;;;;;;5071501;28;20036;-77
2021/06/25 08:43:00;;;;;;;45.05;40.75;;;20.10;99.90;;;;;;5070482;28;20381;-77
2021/06/25 08:45:28;;;;;;;47.45;41.30;;;19.60;99.90;;;;;;5071701;28;20044;-75
2021/06/25 08:47:55;;;;;;;45.97;41.28;;;19.30;99.90;;;;;;5071146;28;20043;-76
2021/06/25 08:50:23;;;;;;;44.88;40.15;;;19.20;99.90;;;;;;5071870;28;20035;-77
2021/06/25 08:52:54;;;;;;;45.55;41.15;;;19.30;99.90;;;;;;5070716;28;20047;-76
2021/06/25 08:55:22;;;;;;;45.40;40.88;;;19.40;99.90;;;;;;5071880;28;20033;-76
2021/06/25 08:57:48;;;;;;;44.97;40.42;;;19.30;99.90;;;;;;5070887;28;20365;-78
2021/06/25 09:00:16;;;;;;;46.40;40.95;;;19.40;99.90;;;;;;5071808;28;20045;-75
2021/06/25 09:02:44;;;;;;;46.85;41.83;;;19.20;99.90;;;;;;5066704;28;20045;-76
2021/06/25 09:05:31;;;;;;;45.67;40.83;;;19.10;99.90;;;;;;5071861;28;20100;-74
2021/06/25 09:07:58;;;;;;;47.45;42.28;;;19.40;99.90;;;;;;5069406;28;20040;-76
2021/06/25 09:10:39;;;;;;;48.05;43.05;;;19.50;99.90;;;;;;5072315;28;20025;-76
2021/06/25 09:13:11;;;;;;;45.28;40.53;;;19.60;99.90;;;;;;5083748;28;20039;-76
2021/06/25 09:15:39;;;;;;;42.92;38.45;;;19.50;99.90;;;;;;5082125;28;20500;-75
2021/06/25 09:18:11;;;;;;;42.08;37.78;;;19.80;99.90;;;;;;5072187;28;20418;-76
2021/06/25 09:20:39;;;;;;;46.75;41.95;;;19.80;99.90;;;;;;5070916;28;20032;-75
2021/06/25 09:23:11;;;;;;;46.08;41.45;;;19.40;99.90;;;;;;5071497;28;20048;-77
2021/06/25 09:26:20;;;;;;;46.65;41.85;;;19.20;99.90;;;;;;5068741;28;20048;-77
2021/06/25 09:28:48;;;;;;;50.00;43.13;;;19.00;99.90;;;;;;5066389;28;20111;-74
2021/06/25 09:31:18;;;;;;;47.70;42.47;;;19.10;99.90;;;;;;5073837;28;20401;-77
2021/06/25 09:33:55;;;;;;;46.40;41.45;;;19.10;99.90;;;;;;5071962;28;20040;-78
2021/06/25 09:36:39;;;;;;;45.20;40.50;;;19.20;99.90;;;;;;5055095;28;20389;-77
2021/06/25 09:39:10;;;;;;;49.78;42.88;;;19.40;99.90;;;;;;5066855;28;20033;-76
2021/06/25 09:41:40;;;;;;;45.17;40.30;;;19.50;99.90;;;;;;5066407;28;20095;-79
2021/06/25 09:44:15;;;;;;;45.53;40.88;;;19.60;99.90;;;;;;5081074;28;20052;-76
2021/06/25 09:46:42;;;;;;;43.50;39.25;;;19.90;99.90;;;;;;5065340;28;20024;-78
2021/06/25 09:49:13;;;;;;;45.58;38.85;;;20.00;99.90;;;;;;5066797;28;20071;-78
2021/06/25 09:51:54;;;;;;;45.17;40.78;;;19.90;99.90;;;;;;5066039;28;20885;-76
2021/06/25 09:54:21;;;;;;;44.45;39.75;;;20.20;99.90;;;;;;5064949;28;20037;-73
2021/06/25 09:57:05;;;;;;;45.75;40.85;;;20.30;99.90;;;;;;5065936;28;21466;-73
2021/06/25 10:02:19;;;;;;;43.85;38.72;;;20.00;99.90;;;;;;5066858;28;20466;-73
2021/06/25 10:04:49;;;;;;;44.60;39.80;;;20.10;99.90;;;;;;5067558;28;20457;-78
2021/06/25 10:07:22;;;;;;;42.33;37.70;;;20.10;99.90;;;;;;5068973;28;20028;-78
2021/06/25 10:09:50;;;;;;;43.95;39.40;;;20.40;99.90;;;;;;5067793;28;20355;-76
2021/06/25 10:12:18;;;;;;;40.63;36.42;;;20.50;99.90;;;;;;5067341;28;21245;-80
2021/06/25 10:14:46;;;;;;;40.70;36.38;;;20.70;99.90;;;;;;5068146;28;20036;-81
2021/06/25 10:17:13;;;;;;;39.50;35.33;;;20.70;99.90;;;;;;5068112;28;20036;-81
2021/06/25 10:19:44;;;;;;;40.28;36.08;;;20.50;99.90;;;;;;5076356;28;20033;-77
2021/06/25 10:22:12;;;;;;;42.20;37.72;;;20.50;99.90;;;;;;5066199;28;20363;-77
2021/06/25 10:24:43;;;;;;;35.67;31.83;;;21.00;99.90;;;;;;5066750;28;20040;-76
2021/06/25 10:27:11;;;;;;;36.97;33.15;;;21.50;99.90;;;;;;5070890;28;20048;-76
2021/06/25 10:29:38;;;;;;;33.72;30.55;;;22.20;99.60;;;;;;5073252;28;20036;-76
2021/06/25 10:32:10;;;;;;;38.45;34.63;;;22.60;97.70;;;;;;5072312;28;20187;-78
2021/06/25 10:34:37;;;;;;;34.20;30.80;;;21.50;98.30;;;;;;5073364;28;20032;-76
2021/06/25 10:37:07;;;;;;;34.50;30.85;;;21.60;98.70;;;;;;5072203;28;20029;-77
2021/06/25 10:39:35;;;;;;;35.83;32.25;;;21.60;98.90;;;;;;5073377;28;20036;-76
2021/06/25 10:42:09;;;;;;;37.70;33.97;;;21.40;98.00;;;;;;5071300;28;20477;-77
2021/06/25 10:44:49;;;;;;;35.03;31.20;;;21.40;97.90;;;;;;5072727;28;20494;-78
2021/06/25 10:47:18;;;;;;;32.90;29.70;;;21.60;97.50;;;;;;5060608;28;20051;-77
2021/06/25 10:50:03;;;;;;;33.08;29.77;;;21.70;97.70;;;;;;5072645;28;20028;-79
2021/06/25 10:52:30;;;;;;;28.88;25.92;;;21.80;97.40;;;;;;5071376;28;20063;-79
2021/06/25 10:55:03;;;;;;;31.63;28.50;;;21.90;97.00;;;;;;5077296;28;20039;-79
2021/06/25 10:57:32;;;;;;;29.50;26.65;;;21.90;96.50;;;;;;5075406;28;20032;-77
2021/06/25 10:59:59;;;;;;;33.85;30.25;;;22.30;96.70;;;;;;5079678;28;20056;-76
2021/06/25 11:02:45;;;;;;;29.05;26.33;;;22.30;94.70;;;;;;5072163;28;20056;-74
2021/06/25 11:05:27;;;;;;;31.83;26.92;;;21.90;96.40;;;;;;5071710;28;20438;-80
2021/06/25 11:07:54;;;;;;;32.80;29.77;;;22.20;96.00;;;;;;5071659;28;20031;-79
2021/06/25 11:10:24;;;;;;;32.85;29.65;;;22.10;95.30;;;;;;5071964;28;20032;-78
2021/06/25 11:13:10;;;;;;;;;;;21.90;95.40;;;;;;5071356;28;20036;-80
2021/06/25 11:15:37;;;;;;;32.85;29.63;;;21.70;95.80;;;;;;5070969;28;19920;-79
2021/06/25 11:18:18;;;;;;;29.20;26.17;;;21.80;96.00;;;;;;5073103;28;20028;-79
2021/06/25 11:21:04;;;;;;;26.65;23.98;;;22.10;95.30;;;;;;5072226;28;20382;-78
2021/06/25 11:23:39;;;;;;;28.77;25.92;;;22.00;94.80;;;;;;5072357;28;20048;-74
2021/06/25 11:26:15;;;;;;;28.55;25.73;;;21.80;94.20;;;;;;5071758;28;21156;-74
2021/06/25 11:28:45;;;;;;;26.85;24.25;;;22.10;94.50;;;;;;5071142;28;20029;-74
2021/06/25 11:31:16;;;;;;;30.27;27.15;;;22.20;93.90;;;;;;5073661;28;20044;-75
2021/06/25 11:36:19;;;;;;;26.20;23.60;;;21.80;92.90;;;;;;5071670;28;20032;-76
2021/06/25 11:39:27;;;;;;;29.42;26.45;;;21.90;94.10;;;;;;5072391;28;20044;-75
2021/06/25 11:42:09;;;;;;;26.77;23.98;;;22.40;93.30;;;;;;5048291;28;20040;-75
2021/06/25 11:44:38;;;;;;;29.50;24.17;;;22.10;92.70;;;;;;5075362;28;20043;-75
2021/06/25 11:47:20;;;;;;;26.30;23.65;;;21.90;91.90;;;;;;5072360;28;20478;-74
2021/06/25 11:52:26;;;;;;;24.50;21.90;;;22.30;92.80;;;;;;5071626;28;20043;-75
2021/06/25 11:54:53;;;;;;;25.42;22.83;;;22.10;91.70;;;;;;5069933;28;20480;-75
2021/06/25 11:57:19;;;;;;;23.83;21.58;;;22.00;92.50;;;;;;5071195;28;20037;-75
2021/06/25 12:00:03;;;;;;;23.77;20.85;;;22.10;92.20;;;;;;5070632;28;20055;-75
2021/06/25 12:02:45;;;;;;;28.27;25.13;;;22.20;92.30;;;;;;5070961;28;20044;-75
2021/06/25 12:05:14;;;;;;;26.40;23.63;;;21.80;92.80;;;;;;5071066;28;20044;-75
2021/06/25 12:07:41;;;;;;;27.42;24.58;;;22.00;92.90;;;;;;5069090;28;20044;-74
2021/06/25 12:10:08;;;;;;;29.75;26.80;;;22.00;92.50;;;;;;5071296;28;20470;-74
2021/06/25 12:12:37;;;;;;;27.10;24.38;;;21.50;92.70;;;;;;5071180;28;20482;-75
2021/06/25 12:15:09;;;;;;;25.60;22.65;;;21.60;93.00;;;;;;5070777;28;20047;-76
2021/06/25 12:17:45;;;;;;;20.02;18.13;;;21.50;93.50;;;;;;5070969;28;20096;-75
2021/06/25 12:20:18;;;;;;;22.58;20.08;;;21.50;93.00;;;;;;5071454;28;20346;-75
2021/06/25 12:22:57;;;;;;;22.73;20.45;;;21.40;93.20;;;;;;5069803;28;20045;-75
2021/06/25 12:25:37;;;;;;;22.55;19.42;;;21.50;92.40;;;;;;5070770;28;20049;-75
2021/06/25 12:28:08;;;;;;;19.38;17.40;;;21.90;92.80;;;;;;5069918;28;20056;-75
2021/06/25 12:30:36;;;;;;;21.52;19.33;;;22.00;92.50;;;;;;5070665;28;20040;-75
2021/06/25 12:33:05;;;;;;;22.80;20.60;;;22.20;91.70;;;;;;5067627;28;20055;-74
2021/06/25 12:35:34;;;;;;;19.55;17.45;;;22.00;91.60;;;;;;5070384;28;20048;-75
2021/06/25 12:38:05;;;;;;;22.35;20.00;;;21.80;92.60;;;;;;5070759;28;20032;-75
2021/06/25 12:40:54;;;;;;;23.77;21.35;;;21.50;92.70;;;;;;5070571;28;20051;-75
2021/06/25 12:43:29;;;;;;;23.80;21.35;;;21.30;92.90;;;;;;5085112;28;20040;-74
2021/06/25 12:45:58;;;;;;;24.52;21.98;;;21.20;93.40;;;;;;5070654;28;20477;-75
2021/06/25 12:48:26;;;;;;;23.17;20.77;;;21.50;92.80;;;;;;5071033;28;20088;-75
2021/06/25 12:51:03;;;;;;;21.10;19.00;;;21.60;93.40;;;;;;5070347;28;20043;-74
2021/06/25 12:53:32;;;;;;;22.52;20.15;;;21.50;93.60;;;;;;5071243;28;20036;-75
2021/06/25 12:56:07;;;;;;;24.45;21.92;;;21.70;93.00;;;;;;5070355;28;20400;-74